createdAt,value
2023-09-13T00:04:35.092Z,13.41
2023-09-13T00:09:42.242Z,13.31
2023-09-13T00:14:44.359Z,13.18
2023-09-13T00:19:46.445Z,13.22
2023-09-13T00:24:48.567Z,13.18
2023-09-13T00:29:50.647Z,13.19
2023-09-13T00:34:52.693Z,13.17
2023-09-13T00:39:54.892Z,13.08
2023-09-13T00:44:57.075Z,12.98
2023-09-13T00:50:00.493Z,12.88
2023-09-13T00:55:05.694Z,12.85
2023-09-13T01:00:12.309Z,12.71
2023-09-13T01:05:16.221Z,12.69
2023-09-13T01:10:19.865Z,12.63
2023-09-13T01:15:24.199Z,12.59
2023-09-13T01:21:07.188Z,12.78
2023-09-13T01:27:06.727Z,12.76
2023-09-13T01:32:08.908Z,12.47
2023-09-13T01:37:11.076Z,12.37
2023-09-13T01:42:14.556Z,12.30
2023-09-13T01:47:18.697Z,12.22
2023-09-13T01:52:21.055Z,12.15
2023-09-13T01:57:23.143Z,12.03
2023-09-13T02:02:25.392Z,11.87
2023-09-13T02:07:27.534Z,11.93
2023-09-13T02:12:29.584Z,11.94
2023-09-13T02:17:33.689Z,11.99
2023-09-13T02:22:35.819Z,12.01
2023-09-13T02:27:39.282Z,12.04
2023-09-13T02:32:42.283Z,12.06
2023-09-13T02:37:44.550Z,12.10
2023-09-13T02:42:46.835Z,12.03
2023-09-13T02:47:48.992Z,12.00
2023-09-13T02:52:51.652Z,11.92
2023-09-13T02:57:56.828Z,11.94
2023-09-13T03:02:59.540Z,11.81
2023-09-13T03:08:02.353Z,11.82
2023-09-13T03:13:05.033Z,11.83
2023-09-13T03:18:07.525Z,11.86
2023-09-13T03:23:09.728Z,11.91
2023-09-13T03:28:12.229Z,11.95
2023-09-13T03:33:14.512Z,12.00
2023-09-13T03:38:17.844Z,12.09
2023-09-13T03:43:20.185Z,12.19
2023-09-13T03:48:23.021Z,12.27
2023-09-13T03:53:26.123Z,12.38
2023-09-13T03:58:28.633Z,12.48
2023-09-13T04:03:31.565Z,12.58
2023-09-13T04:08:33.730Z,12.64
2023-09-13T04:13:36.078Z,12.79
2023-09-13T04:18:38.976Z,12.90
2023-09-13T04:23:41.167Z,13.07
2023-09-13T04:28:43.297Z,13.25
2023-09-13T04:33:49.882Z,13.38
2023-09-13T04:38:54.230Z,13.58
2023-09-13T04:43:56.526Z,13.84
2023-09-13T04:48:58.738Z,14.08
2023-09-13T04:54:02.111Z,14.35
2023-09-13T04:59:05.838Z,14.78
2023-09-13T05:04:08.450Z,15.93
2023-09-13T05:09:10.725Z,17.40
2023-09-13T05:14:14.238Z,19.03
2023-09-13T05:19:16.350Z,20.18
2023-09-13T05:24:18.762Z,21.22
2023-09-13T05:29:20.954Z,22.12
2023-09-13T05:34:23.107Z,22.91
2023-09-13T05:39:27.613Z,23.98
2023-09-13T05:44:29.785Z,24.50
2023-09-13T05:49:32.037Z,26.13
2023-09-13T05:54:34.243Z,27.06
2023-09-13T05:59:40.983Z,27.88
2023-09-13T06:04:43.383Z,28.94
2023-09-13T06:09:45.617Z,29.59
2023-09-13T06:14:48.078Z,29.66
2023-09-13T06:19:51.313Z,29.42
2023-09-13T06:24:53.608Z,29.23
2023-09-13T06:29:55.744Z,29.92
2023-09-13T06:34:59.442Z,30.34
2023-09-13T06:40:02.268Z,30.95
2023-09-13T06:50:15.729Z,32.20
2023-09-13T06:55:19.034Z,32.86
2023-09-13T07:00:30.820Z,32.99
2023-09-13T07:05:38.520Z,33.76
2023-09-13T07:10:40.595Z,34.55
2023-09-13T07:15:42.679Z,35.20
2023-09-13T07:20:44.803Z,35.18
2023-09-13T07:25:49.515Z,35.93
2023-09-13T07:30:51.823Z,36.65
2023-09-13T07:35:53.965Z,36.79
2023-09-13T07:40:56.086Z,36.86
2023-09-13T07:45:58.249Z,36.87
2023-09-13T07:51:00.310Z,35.78
2023-09-13T07:56:03.918Z,35.64
2023-09-13T08:01:06.264Z,36.34
2023-09-13T08:06:08.404Z,35.93
2023-09-13T08:11:10.840Z,35.79
2023-09-13T08:16:14.096Z,37.38
2023-09-13T08:21:16.258Z,38.68
2023-09-13T08:26:28.007Z,38.22
2023-09-13T08:31:30.726Z,37.91
2023-09-13T08:36:34.755Z,37.18
2023-09-13T08:41:37.056Z,38.04
2023-09-13T08:46:39.894Z,40.33
2023-09-13T08:51:42.872Z,40.66
2023-09-13T08:56:46.954Z,39.64
2023-09-13T09:01:51.708Z,36.23
2023-09-13T09:06:54.469Z,35.33
2023-09-13T09:12:01.025Z,36.15
2023-09-13T09:17:04.206Z,35.98
2023-09-13T09:22:09.290Z,36.77
2023-09-13T09:27:13.648Z,37.34
2023-09-13T09:32:16.313Z,38.36
2023-09-13T09:37:19.357Z,38.72
2023-09-13T09:42:21.391Z,40.33
2023-09-13T09:47:23.533Z,42.23
2023-09-13T09:52:25.666Z,43.29
2023-09-13T09:57:27.834Z,43.28
2023-09-13T10:02:30.374Z,41.83
2023-09-13T10:07:42.290Z,42.01
2023-09-13T10:12:46.030Z,40.91
2023-09-13T10:17:49.859Z,40.42
2023-09-13T10:22:55.831Z,40.89
2023-09-13T10:28:02.559Z,40.47
2023-09-13T10:33:07.941Z,39.75
2023-09-13T10:38:16.532Z,40.05
2023-09-13T10:43:21.833Z,39.56
2023-09-13T10:48:25.704Z,39.43
2023-09-13T10:53:28.559Z,39.90
2023-09-13T10:58:32.809Z,39.11
2023-09-13T11:03:35.095Z,38.30
2023-09-13T11:08:37.889Z,39.00
2023-09-13T11:13:40.122Z,38.91
2023-09-13T11:18:58.476Z,39.38
2023-09-13T11:24:04.340Z,38.87
2023-09-13T11:29:26.158Z,39.59
2023-09-13T11:34:29.058Z,37.45
2023-09-13T11:39:31.812Z,36.76
2023-09-13T11:44:34.586Z,36.49
2023-09-13T11:49:43.118Z,37.12
2023-09-13T11:55:05.348Z,36.79
2023-09-13T12:00:16.654Z,35.02
2023-09-13T12:05:29.992Z,33.83
2023-09-13T12:10:40.892Z,33.87
2023-09-13T12:16:04.332Z,33.98
2023-09-13T12:21:08.467Z,32.30
2023-09-13T12:26:12.796Z,31.70
2023-09-13T12:31:16.179Z,30.65
2023-09-13T12:36:19.036Z,29.62
2023-09-13T12:41:22.801Z,29.13
2023-09-13T12:46:28.291Z,29.20
2023-09-13T12:51:34.695Z,29.41
2023-09-13T12:56:38.805Z,29.02
2023-09-13T13:01:41.345Z,29.32
2023-09-13T13:06:59.113Z,30.07
2023-09-13T13:12:01.539Z,29.86
2023-09-13T13:17:03.819Z,29.61
2023-09-13T13:22:11.757Z,28.71
2023-09-13T13:27:14.397Z,27.33
2023-09-13T13:32:17.699Z,26.73
2023-09-13T13:37:20.068Z,26.04
2023-09-13T13:42:22.215Z,25.27
2023-09-13T13:47:42.828Z,24.67
2023-09-13T13:52:45.003Z,24.19
2023-09-13T13:57:47.169Z,23.80
2023-09-13T14:02:51.127Z,23.89
2023-09-13T14:07:53.243Z,24.18
2023-09-13T14:12:58.101Z,24.12
2023-09-13T14:18:00.382Z,23.84
2023-09-13T14:23:02.883Z,23.37
2023-09-13T14:28:10.663Z,23.11
2023-09-13T14:33:18.058Z,22.83
2023-09-13T14:38:21.983Z,22.44
2023-09-13T14:43:24.076Z,22.30
2023-09-13T14:48:26.482Z,22.16
2023-09-13T14:53:28.742Z,22.05
2023-09-13T14:58:33.538Z,21.92
2023-09-13T15:03:39.171Z,21.78
2023-09-13T15:08:49.627Z,21.60
2023-09-13T15:13:51.862Z,21.38
2023-09-13T15:18:58.042Z,21.23
2023-09-13T15:24:03.586Z,21.06
2023-09-13T15:29:05.834Z,20.88
2023-09-13T15:34:11.573Z,20.75
2023-09-13T15:39:13.939Z,20.60
2023-09-13T15:44:21.851Z,20.49
2023-09-13T15:49:26.555Z,20.40
2023-09-13T15:54:28.703Z,20.21
2023-09-13T15:59:33.606Z,20.07
2023-09-13T16:04:35.845Z,19.94
2023-09-13T16:09:37.992Z,19.77
2023-09-13T16:14:40.437Z,19.75
2023-09-13T16:19:42.720Z,19.69
2023-09-13T16:24:45.218Z,19.60
2023-09-13T16:29:47.461Z,19.55
2023-09-13T16:34:49.733Z,19.47
2023-09-13T16:39:52.183Z,19.40
2023-09-13T16:44:54.349Z,19.35
2023-09-13T16:49:56.605Z,19.27
2023-09-13T16:54:58.878Z,19.20
2023-09-13T17:00:01.120Z,19.13
2023-09-13T17:05:04.963Z,19.04
2023-09-13T17:10:07.525Z,19.05
2023-09-13T17:15:10.044Z,18.99
2023-09-13T17:20:12.412Z,18.92
2023-09-13T17:25:14.442Z,18.80
2023-09-13T17:30:16.563Z,18.70
2023-09-13T17:35:18.769Z,18.65
2023-09-13T17:40:21.114Z,18.58
2023-09-13T17:45:23.348Z,18.56
2023-09-13T17:50:25.468Z,18.49
2023-09-13T17:55:27.674Z,18.46
2023-09-13T18:00:30.178Z,18.44
2023-09-13T18:05:32.402Z,18.35
2023-09-13T18:10:34.667Z,18.21
2023-09-13T18:15:36.922Z,18.10
2023-09-13T18:20:40.287Z,18.00
2023-09-13T18:25:42.476Z,17.87
2023-09-13T18:30:44.632Z,17.78
2023-09-13T18:35:46.840Z,17.76
2023-09-13T18:40:49.018Z,17.75
2023-09-13T18:46:01.244Z,17.83
2023-09-13T18:51:04.880Z,17.73
2023-09-13T18:56:07.206Z,17.76
2023-09-13T19:01:09.726Z,17.74
2023-09-13T19:06:13.327Z,17.62
2023-09-13T19:11:15.746Z,17.46
2023-09-13T19:16:17.966Z,17.36
2023-09-13T19:21:20.261Z,17.16
2023-09-13T19:26:23.408Z,17.15
2023-09-13T19:31:26.547Z,17.09
2023-09-13T19:36:28.791Z,17.04
2023-09-13T19:41:30.973Z,17.03
2023-09-13T19:46:33.214Z,16.96
2023-09-13T19:51:35.396Z,16.96
2023-09-13T19:56:37.579Z,16.95
2023-09-13T20:01:39.708Z,16.87
2023-09-13T20:06:42.269Z,16.94
2023-09-13T20:11:44.855Z,16.91
2023-09-13T20:16:46.945Z,16.85
2023-09-13T20:21:49.113Z,16.79
2023-09-13T20:26:51.904Z,16.79
2023-09-13T20:31:54.128Z,16.74
2023-09-13T20:36:56.297Z,16.66
2023-09-13T20:41:58.401Z,16.63
2023-09-13T20:47:00.999Z,16.51
2023-09-13T20:52:03.572Z,16.44
2023-09-13T20:57:08.648Z,16.44
2023-09-13T21:02:10.771Z,16.32
2023-09-13T21:07:12.885Z,16.22
2023-09-13T21:12:15.054Z,16.12
2023-09-13T21:17:17.153Z,16.02
2023-09-13T21:22:19.263Z,15.95
2023-09-13T21:27:22.036Z,15.95
2023-09-13T21:32:24.349Z,15.92
2023-09-13T21:37:26.571Z,15.87
2023-09-13T21:42:28.882Z,15.81
2023-09-13T21:47:31.084Z,15.77
2023-09-13T21:52:33.185Z,15.77
2023-09-13T21:57:39.266Z,15.77
2023-09-13T22:02:41.477Z,15.64
2023-09-13T22:07:45.037Z,15.74
2023-09-13T22:12:47.271Z,15.61
2023-09-13T22:17:51.416Z,15.57
2023-09-13T22:22:53.771Z,15.50
2023-09-13T22:27:55.893Z,15.47
2023-09-13T22:32:58.050Z,15.42
2023-09-13T22:38:00.214Z,15.38
2023-09-13T22:43:03.056Z,15.27
2023-09-13T22:48:07.342Z,15.24
2023-09-13T22:53:09.559Z,15.18
2023-09-13T22:58:11.639Z,15.17
2023-09-13T23:03:14.563Z,15.11
2023-09-13T23:08:17.645Z,15.04
2023-09-13T23:13:19.730Z,14.94
2023-09-13T23:18:23.204Z,14.87
2023-09-13T23:23:26.464Z,14.80
2023-09-13T23:28:28.595Z,14.71
2023-09-13T23:33:30.808Z,14.58
2023-09-13T23:38:33.658Z,14.51
2023-09-13T23:43:37.019Z,14.42
2023-09-13T23:48:41.168Z,14.41
2023-09-13T23:53:50.100Z,14.36
2023-09-13T23:58:54.923Z,14.31
